Time;durP1;ratioP1;P1;durP2;ratioP2;P2;SDS_P1;SDS_P2;PMS_P1;PMS_P2;Temp;Humidity;BMP_temperature;BMP_pressure;BME280_temperature;BME280_humidity;BME280_pressure;Samples;Min_cycle;Max_cycle;Signal;HPM_P1;HPM_P2
2022/05/30 00:00:48;;;;;;;;;;;7.90;1.00;;;;;;5095509;28;19908;-81
2022/05/30 00:03:13;;;;;;;;;;;7.90;1.00;;;;;;5095821;28;19908;-72
2022/05/30 00:05:46;;;;;;;;;;;8.00;1.00;;;;;;5095191;28;19914;-72
2022/05/30 00:08:12;;;;;;;;;;;7.80;1.00;;;;;;5095255;28;20021;-72
2022/05/30 00:10:38;;;;;;;;;;;7.80;1.00;;;;;;5095109;28;19951;-72
2022/05/30 00:13:03;;;;;;;;;;;7.80;1.00;;;;;;5088510;28;19953;-72
2022/05/30 00:15:29;;;;;;;;;;;7.70;1.00;;;;;;5080896;28;19916;-72
2022/05/30 00:17:56;;;;;;;;;;;7.60;1.00;;;;;;5095362;28;19912;-72
2022/05/30 00:20:22;;;;;;;;;;;7.60;1.00;;;;;;5094952;28;20264;-72
2022/05/30 00:22:48;;;;;;;;;;;7.50;1.00;;;;;;5094627;28;20481;-72
2022/05/30 00:25:13;;;;;;;;;;;7.50;1.00;;;;;;5084683;28;19908;-72
2022/05/30 00:27:39;;;;;;;;;;;7.40;1.00;;;;;;5086387;28;20310;-72
2022/05/30 00:30:05;;;;;;;;;;;7.40;1.00;;;;;;5094791;28;19916;-72
2022/05/30 00:32:31;;;;;;;;;;;7.30;1.00;;;;;;5094961;28;19989;-80
2022/05/30 00:34:57;;;;;;;;;;;7.20;1.00;;;;;;5094848;28;19995;-80
2022/05/30 00:37:25;;;;;;;;;;;7.20;1.00;;;;;;5094825;28;20386;-81
2022/05/30 00:39:51;;;;;;;;;;;7.20;1.00;;;;;;5094682;28;19908;-81
2022/05/30 00:42:17;;;;;;;;;;;7.20;1.00;;;;;;5094809;28;19912;-80
2022/05/30 00:44:44;;;;;;;;;;;7.10;1.00;;;;;;5094568;28;19915;-81
2022/05/30 00:47:10;;;;;;;;;;;7.00;1.00;;;;;;5094691;28;19923;-80
2022/05/30 00:49:37;;;;;;;;;;;7.00;1.00;;;;;;5094774;28;19908;-72
2022/05/30 00:52:05;;;;;;;;;;;7.00;1.00;;;;;;5094426;28;19908;-72
2022/05/30 00:54:37;;;;;;;;;;;6.90;1.00;;;;;;5094129;28;19908;-72
2022/05/30 00:57:20;;;;;;;;;;;6.90;1.00;;;;;;5094219;28;20359;-72
2022/05/30 00:59:48;;;;;;;;;;;6.90;1.00;;;;;;5094018;28;19908;-72
2022/05/30 01:02:14;;;;;;;;;;;6.80;1.00;;;;;;5093946;28;19916;-72
2022/05/30 01:07:24;;;;;;;;;;;6.80;1.00;;;;;;5094256;28;20406;-80
2022/05/30 01:09:50;;;;;;;;;;;6.70;1.00;;;;;;5094363;28;19908;-80
2022/05/30 01:12:16;;;;;;;;;;;6.70;1.00;;;;;;5089369;28;20338;-80
2022/05/30 01:14:42;;;;;;;;;;;6.70;1.00;;;;;;5093705;28;19962;-80
2022/05/30 01:17:10;;;;;;;;;;;6.70;1.00;;;;;;5093867;28;19909;-80
2022/05/30 01:19:46;;;;;;;;;;;6.70;1.00;;;;;;5094297;28;19908;-72
2022/05/30 01:22:14;;;;;;;;;;;6.60;1.00;;;;;;5087370;28;20438;-72
2022/05/30 01:24:40;;;;;;;;;;;6.60;1.00;;;;;;5081396;28;19912;-72
2022/05/30 01:27:21;;;;;;;;;;;6.70;1.00;;;;;;5080677;28;20404;-72
2022/05/30 01:29:48;;;;;;;;;;;6.50;1.00;;;;;;5093639;28;19916;-72
2022/05/30 01:32:18;;;;;;;;;;;6.50;1.00;;;;;;5084495;28;19909;-72
2022/05/30 01:34:43;;;;;;;;;;;6.40;1.00;;;;;;5090091;28;19915;-73
2022/05/30 01:37:09;;;;;;;;;;;6.40;1.00;;;;;;5093666;28;19912;-72
2022/05/30 01:39:34;;;;;;;;;;;6.40;1.00;;;;;;5075348;28;19912;-72
2022/05/30 01:42:00;;;;;;;;;;;6.40;1.00;;;;;;5093582;28;20014;-72
2022/05/30 01:44:26;;;;;;;;;;;6.40;1.00;;;;;;5090761;28;20363;-72
2022/05/30 01:46:52;;;;;;;;;;;6.40;1.00;;;;;;5082751;28;19916;-73
2022/05/30 01:49:18;;;;;;;;;;;6.30;1.00;;;;;;5093797;28;19908;-80
2022/05/30 01:51:43;;;;;;;;;;;6.30;1.00;;;;;;5093808;28;20386;-81
2022/05/30 01:54:09;;;;;;;;;;;6.30;1.00;;;;;;5079801;28;19999;-80
2022/05/30 01:56:34;;;;;;;;;;;6.30;1.00;;;;;;5084283;28;19964;-80
2022/05/30 01:59:00;;;;;;;;;;;6.40;1.00;;;;;;5089361;28;19915;-80
2022/05/30 02:01:31;;;;;;;;;;;6.30;1.00;;;;;;5088133;28;19916;-80
2022/05/30 02:03:57;;;;;;;;;;;6.30;1.00;;;;;;5089831;28;19908;-80
2022/05/30 02:06:23;;;;;;;;;;;6.30;1.00;;;;;;5093126;28;20268;-80
2022/05/30 02:08:49;;;;;;;;;;;6.30;1.00;;;;;;5093282;28;20294;-80
2022/05/30 02:11:16;;;;;;;;;;;6.30;1.00;;;;;;5092619;28;19912;-80
2022/05/30 02:13:42;;;;;;;;;;;6.30;1.00;;;;;;5089867;28;19916;-80
2022/05/30 02:18:52;;;;;;;;;;;6.20;1.00;;;;;;5079999;28;19915;-73
2022/05/30 02:21:18;;;;;;;;;;;6.20;1.00;;;;;;5093165;28;20279;-73
2022/05/30 02:23:44;;;;;;;;;;;6.20;1.00;;;;;;5092979;28;19957;-73
2022/05/30 02:26:10;;;;;;;;;;;6.20;1.00;;;;;;5076744;28;20360;-73
2022/05/30 02:28:36;;;;;;;;;;;6.20;1.00;;;;;;5096593;28;20362;-73
2022/05/30 02:31:01;;;;;;;;;;;6.20;1.00;;;;;;5097188;28;19912;-73
2022/05/30 02:38:58;;;;;;;;;;;6.20;1.00;;;;;;5096931;28;19964;-73
2022/05/30 02:41:24;;;;;;;;;;;6.20;1.00;;;;;;5096872;28;20335;-73
2022/05/30 02:43:50;;;;;;;;;;;6.20;1.00;;;;;;5096805;28;20003;-73
2022/05/30 02:46:16;;;;;;;;;;;6.20;1.00;;;;;;5083138;28;19969;-73
2022/05/30 02:48:42;;;;;;;;;;;6.20;1.00;;;;;;5097075;28;19909;-72
2022/05/30 02:51:07;;;;;;;;;;;6.20;1.00;;;;;;5078632;28;20271;-73
2022/05/30 02:53:33;;;;;;;;;;;6.20;1.00;;;;;;5097051;28;19977;-73
2022/05/30 02:55:59;;;;;;;;;;;6.10;1.00;;;;;;5096323;28;19915;-73
2022/05/30 02:58:25;;;;;;;;;;;6.10;1.00;;;;;;5096554;28;19935;-73
2022/05/30 03:00:50;;;;;;;;;;;6.20;1.00;;;;;;5096048;28;20363;-73
2022/05/30 03:03:17;;;;;;;;;;;6.20;1.00;;;;;;5096622;28;19912;-73
2022/05/30 03:05:43;;;;;;;;;;;6.20;1.00;;;;;;5096718;28;19911;-73
2022/05/30 03:08:09;;;;;;;;;;;6.30;1.00;;;;;;5096387;28;20313;-73
2022/05/30 03:10:35;;;;;;;;;;;6.30;1.00;;;;;;5096297;28;19912;-78
2022/05/30 03:13:00;;;;;;;;;;;6.30;1.00;;;;;;5092721;28;20363;-73
2022/05/30 03:15:26;;;;;;;;;;;6.20;1.00;;;;;;5082421;28;19915;-73
2022/05/30 03:17:51;;;;;;;;;;;6.30;1.00;;;;;;5096318;28;19908;-73
2022/05/30 03:20:20;;;;;;;;;;;6.30;1.00;;;;;;5096506;28;20382;-73
2022/05/30 03:22:46;;;;;;;;;;;6.30;1.00;;;;;;5096146;28;19919;-74
2022/05/30 03:25:11;;;;;;;;;;;6.30;1.00;;;;;;5086007;28;20363;-72
2022/05/30 03:27:37;;;;;;;;;;;6.30;1.00;;;;;;5087209;28;19919;-72
2022/05/30 03:30:03;;;;;;;;;;;6.40;1.00;;;;;;5095901;28;19947;-75
2022/05/30 03:32:28;;;;;;;;;;;6.40;1.00;;;;;;5096121;28;19909;-72
2022/05/30 03:34:54;;;;;;;;;;;6.50;1.00;;;;;;5096182;28;19912;-72
2022/05/30 03:37:19;;;;;;;;;;;6.50;1.00;;;;;;5095506;28;20005;-72
2022/05/30 03:39:45;;;;;;;;;;;6.50;1.00;;;;;;5095680;28;19908;-72
2022/05/30 03:42:13;;;;;;;;;;;6.50;1.00;;;;;;5095635;28;19919;-71
2022/05/30 03:44:39;;;;;;;;;;;6.50;1.00;;;;;;5091112;28;20005;-71
2022/05/30 03:47:05;;;;;;;;;;;6.50;1.00;;;;;;5086615;28;20274;-71
2022/05/30 03:49:30;;;;;;;;;;;6.50;1.00;;;;;;5091913;28;19912;-70
2022/05/30 03:51:58;;;;;;;;;;;6.50;1.00;;;;;;5081815;28;19915;-71
2022/05/30 03:54:23;;;;;;;;;;;6.60;1.00;;;;;;5095243;28;19911;-71
2022/05/30 03:56:49;;;;;;;;;;;6.70;1.00;;;;;;5095272;28;19958;-71
2022/05/30 03:59:14;;;;;;;;;;;6.70;1.00;;;;;;5095018;28;19961;-71
2022/05/30 04:01:40;;;;;;;;;;;6.90;1.00;;;;;;5095206;28;19962;-71
2022/05/30 04:04:05;;;;;;;;;;;6.80;1.00;;;;;;5095243;28;19908;-71
2022/05/30 04:06:31;;;;;;;;;;;7.00;1.00;;;;;;5095629;28;19930;-71
2022/05/30 04:08:56;;;;;;;;;;;7.00;1.00;;;;;;5095161;28;19915;-71
2022/05/30 04:11:22;;;;;;;;;;;7.20;1.00;;;;;;5093298;28;19908;-71
2022/05/30 04:13:49;;;;;;;;;;;7.10;1.00;;;;;;5092485;28;19968;-71
2022/05/30 04:16:15;;;;;;;;;;;7.20;1.00;;;;;;5095094;28;20302;-71
2022/05/30 04:18:40;;;;;;;;;;;7.20;1.00;;;;;;5095044;28;19915;-71
2022/05/30 04:21:07;;;;;;;;;;;7.30;1.00;;;;;;5077152;28;19916;-78
2022/05/30 04:23:40;;;;;;;;;;;7.30;1.00;;;;;;5094997;28;19912;-78
2022/05/30 04:26:06;;;;;;;;;;;7.40;1.00;;;;;;5077641;28;20348;-79
2022/05/30 04:28:32;;;;;;;;;;;7.40;1.00;;;;;;5094273;28;20011;-78
2022/05/30 04:30:57;;;;;;;;;;;7.50;1.00;;;;;;5095017;28;19951;-78
2022/05/30 04:33:22;;;;;;;;;;;7.50;1.00;;;;;;5094785;28;20331;-78
2022/05/30 04:35:48;;;;;;;;;;;7.50;1.00;;;;;;5095247;28;19908;-77
2022/05/30 04:38:13;;;;;;;;;;;7.50;1.00;;;;;;5094737;28;20317;-78
2022/05/30 04:40:39;;;;;;;;;;;7.50;1.00;;;;;;5094621;28;19935;-78
2022/05/30 04:43:05;;;;;;;;;;;7.70;1.00;;;;;;5093498;28;19939;-78
2022/05/30 04:45:30;;;;;;;;;;;7.70;1.00;;;;;;5094291;28;20101;-77
2022/05/30 04:47:56;;;;;;;;;;;7.80;1.00;;;;;;5094346;28;19908;-78
2022/05/30 04:50:21;;;;;;;;;;;7.90;1.00;;;;;;5094673;28;19917;-71
2022/05/30 04:52:47;;;;;;;;;;;7.90;1.00;;;;;;5094398;28;19908;-71
2022/05/30 04:55:15;;;;;;;;;;;7.90;1.00;;;;;;5075807;28;19912;-71
2022/05/30 04:57:44;;;;;;;;;;;7.90;1.00;;;;;;5094283;28;20333;-71
2022/05/30 05:00:11;;;;;;;;;;;8.00;1.00;;;;;;5062647;28;19950;-71
2022/05/30 05:02:36;;;;;;;;;;;8.00;1.00;;;;;;5065324;28;19916;-71
2022/05/30 05:05:02;;;;;;;;;;;8.10;1.00;;;;;;5085879;28;19908;-78
2022/05/30 05:07:34;;;;;;;;;;;8.20;1.00;;;;;;5070206;28;19920;-78
2022/05/30 05:10:01;;;;;;;;;;;8.30;1.00;;;;;;5086642;28;19948;-79
2022/05/30 05:12:26;;;;;;;;;;;8.40;1.00;;;;;;5088856;28;19995;-79
2022/05/30 05:14:55;;;;;;;;;;;8.50;1.00;;;;;;5094054;28;20323;-78
2022/05/30 05:17:25;;;;;;;;;;;8.50;1.00;;;;;;5087746;28;19916;-78
2022/05/30 05:19:51;;;;;;;;;;;8.60;1.00;;;;;;5087385;28;19908;-78
2022/05/30 05:22:16;;;;;;;;;;;8.70;1.00;;;;;;5080571;28;19919;-78
2022/05/30 05:24:42;;;;;;;;;;;8.80;1.00;;;;;;5083307;28;20360;-78
2022/05/30 05:27:07;;;;;;;;;;;8.90;1.00;;;;;;5080506;28;19915;-78
2022/05/30 05:29:33;;;;;;;;;;;8.90;1.00;;;;;;5094411;28;19961;-78
2022/05/30 05:31:59;;;;;;;;;;;9.00;1.00;;;;;;5093850;28;19918;-78
2022/05/30 05:34:24;;;;;;;;;;;9.30;1.00;;;;;;5069068;28;19913;-79
2022/05/30 05:36:50;;;;;;;;;;;9.30;1.00;;;;;;5080666;28;19998;-71
2022/05/30 05:39:16;;;;;;;;;;;9.50;1.00;;;;;;5071459;28;19913;-71
2022/05/30 05:41:43;;;;;;;;;;;9.70;1.00;;;;;;5083798;28;20391;-71
2022/05/30 05:44:08;;;;;;;;;;;10.10;1.00;;;;;;5086365;28;19908;-72
2022/05/30 05:46:34;;;;;;;;;;;10.50;1.00;;;;;;5079646;28;19920;-71
2022/05/30 05:49:00;;;;;;;;;;;10.80;1.00;;;;;;5093175;28;20334;-71
2022/05/30 05:51:26;;;;;;;;;;;11.20;1.00;;;;;;5093700;28;19947;-78
2022/05/30 05:53:53;;;;;;;;;;;11.50;1.00;;;;;;5093830;28;20394;-78
2022/05/30 05:56:23;;;;;;;;;;;11.80;1.00;;;;;;5093346;28;19908;-78
2022/05/30 05:58:49;;;;;;;;;;;12.20;1.00;;;;;;5089650;28;20368;-79
2022/05/30 06:01:23;;;;;;;;;;;12.50;1.00;;;;;;5084635;28;20006;-85
2022/05/30 06:03:51;;;;;;;;;;;12.70;1.00;;;;;;5074692;28;19912;-83
2022/05/30 06:06:16;;;;;;;;;;;13.00;99.90;;;;;;5082487;28;19915;-73
2022/05/30 06:08:42;;;;;;;;;;;13.10;99.90;;;;;;5071733;28;19909;-73
2022/05/30 06:11:15;;;;;;;;;;;13.40;99.90;;;;;;5085298;28;19909;-73
2022/05/30 06:13:42;;;;;;;;;;;13.50;99.90;;;;;;5076530;28;19912;-73
2022/05/30 06:16:10;;;;;;;;;;;13.60;99.90;;;;;;5084161;28;19909;-72
2022/05/30 06:18:36;;;;;;;;;;;13.70;99.90;;;;;;5076884;28;19914;-73
2022/05/30 06:21:01;;;;;;;;;;;13.80;99.90;;;;;;5094078;28;20002;-83
2022/05/30 06:23:46;;;;;;;;;;;13.90;99.90;;;;;;5080826;28;19908;-83
2022/05/30 06:26:50;;;;;;;;;;;14.10;99.90;;;;;;5069943;28;20329;-83
2022/05/30 06:32:55;;;;;;;;;;;14.30;99.90;;;;;;5083530;28;19958;-83
2022/05/30 06:35:41;;;;;;;;;;;14.50;99.90;;;;;;5089505;28;20360;-83
2022/05/30 06:38:09;;;;;;;;;;;14.70;99.90;;;;;;5077693;28;19916;-73
2022/05/30 06:40:36;;;;;;;;;;;14.80;99.90;;;;;;5093193;28;20115;-73
2022/05/30 06:43:02;;;;;;;;;;;15.00;99.90;;;;;;5093485;28;19916;-73
2022/05/30 06:45:27;;;;;;;;;;;15.20;99.90;;;;;;5092928;28;19912;-72
2022/05/30 06:47:53;;;;;;;;;;;15.40;99.90;;;;;;5093670;28;19955;-73
2022/05/30 06:50:19;;;;;;;;;;;15.60;99.90;;;;;;5093493;28;20006;-73
2022/05/30 06:52:44;;;;;;;;;;;15.80;99.90;;;;;;5076253;28;19912;-72
2022/05/30 06:55:10;;;;;;;;;;;16.00;99.90;;;;;;5069263;28;19912;-73
2022/05/30 07:00:20;;;;;;;;;;;16.30;99.90;;;;;;5087003;28;19915;-73
2022/05/30 07:02:46;;;;;;;;;;;16.40;99.90;;;;;;5080005;28;19912;-73
2022/05/30 07:05:12;;;;;;;;;;;16.40;99.90;;;;;;5093253;28;19920;-72
2022/05/30 07:11:01;;;;;;;;;;;16.50;99.90;;;;;;5065129;28;19958;-83
2022/05/30 07:16:31;;;;;;;;;;;16.60;99.90;;;;;;5084459;28;19915;-83
2022/05/30 07:22:01;;;;;;;;;;;16.80;99.90;;;;;;5090612;28;19938;-83
2022/05/30 07:30:35;;;;;;;;;;;17.00;99.90;;;;;;5096090;28;19962;-83
2022/05/30 07:33:01;;;;;;;;;;;17.10;99.90;;;;;;5077511;28;20371;-83
2022/05/30 07:35:31;;;;;;;;;;;17.10;99.90;;;;;;5077880;28;19908;-83
2022/05/30 07:37:57;;;;;;;;;;;17.20;99.90;;;;;;5095907;28;19914;-83
2022/05/30 07:40:25;;;;;;;;;;;17.20;99.90;;;;;;5096049;28;19908;-83
2022/05/30 07:42:51;;;;;;;;;;;17.20;99.90;;;;;;5077763;28;20006;-83
2022/05/30 07:45:16;;;;;;;;;;;17.40;99.90;;;;;;5095726;28;19946;-83
2022/05/30 07:47:42;;;;;;;;;;;17.60;99.90;;;;;;5077523;28;19912;-83
2022/05/30 07:50:08;;;;;;;;;;;17.80;99.90;;;;;;5095890;28;19996;-83
2022/05/30 07:52:34;;;;;;;;;;;17.90;99.90;;;;;;5096203;28;19969;-73
2022/05/30 07:55:02;;;;;;;;;;;18.00;99.90;;;;;;5095126;28;19915;-72
2022/05/30 08:00:14;;;;;;;;;;;18.00;99.90;;;;;;5095481;28;19961;-72
2022/05/30 08:02:40;;;;;;;;;;;18.20;99.90;;;;;;5094843;28;19912;-73
2022/05/30 08:05:06;;;;;;;;;;;18.30;99.90;;;;;;5093843;28;19916;-72
2022/05/30 08:07:32;;;;;;;;;;;18.30;99.90;;;;;;5095462;28;19915;-73
2022/05/30 08:09:57;;;;;;;;;;;18.40;99.90;;;;;;5091533;28;19908;-72
2022/05/30 08:12:23;;;;;;;;;;;18.50;99.90;;;;;;5073549;28;19938;-72
2022/05/30 08:14:48;;;;;;;;;;;18.30;99.90;;;;;;5086453;28;19908;-72
2022/05/30 08:17:14;;;;;;;;;;;18.40;99.90;;;;;;5094955;28;19969;-72
2022/05/30 08:19:40;;;;;;;;;;;18.50;99.90;;;;;;5082290;28;20530;-72
2022/05/30 08:22:09;;;;;;;;;;;18.70;99.90;;;;;;5057894;28;20285;-83
2022/05/30 08:24:44;;;;;;;;;;;18.90;99.90;;;;;;5067187;28;20343;-82
2022/05/30 08:27:10;;;;;;;;;;;19.20;99.90;;;;;;5059926;28;19923;-82
2022/05/30 08:29:36;;;;;;;;;;;19.40;99.90;;;;;;5076446;28;19917;-83
2022/05/30 08:32:03;;;;;;;;;;;19.40;99.90;;;;;;5094896;28;19916;-83
2022/05/30 08:34:29;;;;;;;;;;;19.40;99.90;;;;;;5095067;28;19908;-83
2022/05/30 08:36:54;;;;;;;;;;;19.70;99.90;;;;;;5083699;28;19917;-73
2022/05/30 08:42:04;;;;;;;;;;;19.70;99.90;;;;;;5092117;28;20262;-72
2022/05/30 08:44:30;;;;;;;;;;;19.70;99.90;;;;;;5080370;28;19908;-73
2022/05/30 08:47:00;;;;;;;;;;;19.90;99.90;;;;;;5067012;28;20000;-73
2022/05/30 08:49:42;;;;;;;;;;;20.30;99.90;;;;;;5094327;28;19915;-72
2022/05/30 08:52:18;;;;;;;;;;;20.40;99.90;;;;;;5081190;28;19935;-72
2022/05/30 08:54:59;;;;;;;;;;;20.60;99.90;;;;;;5094103;28;19908;-72
2022/05/30 08:57:30;;;;;;;;;;;20.80;99.90;;;;;;5088955;28;20386;-72
2022/05/30 09:00:02;;;;;;;;;;;20.80;99.90;;;;;;5059295;28;20283;-71
2022/05/30 09:02:39;;;;;;;;;;;20.90;99.90;;;;;;5080369;28;19919;-72
2022/05/30 09:05:05;;;;;;;;;;;20.70;99.90;;;;;;5089460;28;19912;-72
2022/05/30 09:07:33;;;;;;;;;;;20.80;99.90;;;;;;5084145;28;19919;-72
2022/05/30 09:10:02;;;;;;;;;;;21.00;99.90;;;;;;5080271;28;20290;-72
2022/05/30 09:12:41;;;;;;;;;;;21.10;99.90;;;;;;5078483;28;19912;-72
2022/05/30 09:15:14;;;;;;;;;;;21.00;99.90;;;;;;5080617;28;19913;-72
2022/05/30 09:17:44;;;;;;;;;;;21.10;99.90;;;;;;5093216;28;19908;-72
2022/05/30 09:20:14;;;;;;;;;;;21.20;99.90;;;;;;5092596;28;19908;-72
2022/05/30 09:22:40;;;;;;;;;;;21.00;99.90;;;;;;5094064;28;20009;-72
2022/05/30 09:28:15;;;;;;;;;;;21.00;99.90;;;;;;5051193;28;20339;-72
2022/05/30 09:30:51;;;;;;;;;;;21.30;99.90;;;;;;5050857;28;20007;-72
2022/05/30 09:33:24;;;;;;;;;;;21.40;99.90;;;;;;5051104;28;19999;-72
2022/05/30 09:36:08;;;;;;;;;;;21.20;99.90;;;;;;5050790;28;20003;-72
2022/05/30 09:38:39;;;;;;;;;;;21.30;99.90;;;;;;5051405;28;19948;-72
2022/05/30 09:41:06;;;;;;;;;;;21.50;99.90;;;;;;5050795;28;19913;-72
2022/05/30 09:43:41;;;;;;;;;;;21.40;99.90;;;;;;5047025;28;19932;-72
2022/05/30 09:46:36;;;;;;;;;;;21.50;99.90;;;;;;5050746;28;19940;-74
2022/05/30 09:49:04;;;;;;;;;;;21.70;99.90;;;;;;4961393;28;20794;-72
2022/05/30 09:51:31;;;;;;;;;;;21.70;99.90;;;;;;4963779;28;19957;-72
2022/05/30 09:53:57;;;;;;;;;;;21.90;99.90;;;;;;4974024;28;20361;-79
2022/05/30 09:56:23;;;;;;;;;;;22.00;99.90;;;;;;4984524;28;19934;-80
2022/05/30 09:58:57;;;;;;;;;;;21.70;99.90;;;;;;4972803;28;19917;-72
2022/05/30 10:01:27;;;;;;;;;;;21.80;99.90;;;;;;4991242;28;19918;-73
2022/05/30 10:03:56;;;;;;;;;;;21.70;99.90;;;;;;4991606;28;20372;-72
2022/05/30 10:06:24;;;;;;;;;;;21.90;99.90;;;;;;4980415;28;19914;-74
2022/05/30 10:09:16;;;;;;;;;;;21.90;99.90;;;;;;4984043;28;20297;-71
2022/05/30 10:11:42;;;;;;;;;;;21.30;99.90;;;;;;4987208;28;20005;-71
2022/05/30 10:14:20;;;;;;;;;;;21.30;99.90;;;;;;4972674;28;19922;-72
2022/05/30 10:16:45;;;;;;;;;;;21.30;99.90;;;;;;4986709;28;20009;-72
2022/05/30 10:19:20;;;;;;;;;;;21.40;99.90;;;;;;4991503;28;19910;-72
2022/05/30 10:30:38;;;;;;;;;;;22.10;99.90;;;;;;5093035;28;19970;-73
2022/05/30 10:33:15;;;;;;;;;;;22.10;99.90;;;;;;5093314;28;19912;-73
2022/05/30 10:35:50;;;;;;;;;;;21.60;99.90;;;;;;5093281;28;19909;-73
2022/05/30 10:38:15;;;;;;;;;;;21.40;99.90;;;;;;5079929;28;19944;-73
2022/05/30 10:40:41;;;;;;;;;;;21.50;99.90;;;;;;5092941;28;19950;-73
2022/05/30 10:43:25;;;;;;;;;;;21.70;99.90;;;;;;5092726;28;19912;-72
2022/05/30 10:45:57;;;;;;;;;;;21.60;99.90;;;;;;5079315;28;19916;-74
2022/05/30 10:48:33;;;;;;;;;;;21.60;99.90;;;;;;5096480;28;19934;-73
2022/05/30 10:51:05;;;;;;;;;;;21.60;99.90;;;;;;5085403;28;19909;-73
2022/05/30 10:53:36;;;;;;;;;;;21.40;99.90;;;;;;5087725;28;19920;-72
2022/05/30 10:56:14;;;;;;;;;;;21.30;99.90;;;;;;5088953;28;20279;-73
2022/05/30 10:58:43;;;;;;;;;;;21.00;99.90;;;;;;5089719;28;19916;-72
2022/05/30 11:01:12;;;;;;;;;;;20.90;99.90;;;;;;5082859;28;19919;-72
2022/05/30 11:03:49;;;;;;;;;;;20.60;99.90;;;;;;5075779;28;19951;-73
2022/05/30 11:06:14;;;;;;;;;;;20.10;99.90;;;;;;5089842;28;19935;-73
2022/05/30 11:08:59;;;;;;;;;;;20.10;99.90;;;;;;5089944;28;19908;-73
2022/05/30 11:11:35;;;;;;;;;;;20.20;99.90;;;;;;5084734;28;19915;-73
2022/05/30 11:14:06;;;;;;;;;;;20.20;99.90;;;;;;5095432;28;19908;-73
2022/05/30 11:16:35;;;;;;;;;;;20.10;99.90;;;;;;5096303;28;19908;-73
2022/05/30 11:19:04;;;;;;;;;;;20.20;99.90;;;;;;5096381;28;19908;-73
2022/05/30 11:21:32;;;;;;;;;;;20.40;99.90;;;;;;5096027;28;19912;-73
2022/05/30 11:24:01;;;;;;;;;;;20.60;99.90;;;;;;5096592;28;19931;-73
2022/05/30 11:26:38;;;;;;;;;;;20.90;99.90;;;;;;5086138;28;19990;-73
2022/05/30 11:29:16;;;;;;;;;;;21.30;99.90;;;;;;5086550;28;19935;-73
2022/05/30 11:31:44;;;;;;;;;;;21.90;99.90;;;;;;5093109;28;19999;-73
2022/05/30 11:34:18;;;;;;;;;;;22.40;99.90;;;;;;5096027;28;19908;-73
2022/05/30 11:36:48;;;;;;;;;;;22.60;99.90;;;;;;5095875;28;19908;-73
2022/05/30 11:39:23;;;;;;;;;;;22.90;99.90;;;;;;5096279;28;19908;-74
2022/05/30 11:41:55;;;;;;;;;;;23.20;99.90;;;;;;5095958;28;19919;-74
2022/05/30 11:44:30;;;;;;;;;;;23.10;99.90;;;;;;5095106;28;20034;-74
2022/05/30 11:46:56;;;;;;;;;;;23.20;99.90;;;;;;5086345;28;20006;-74
2022/05/30 11:49:31;;;;;;;;;;;23.20;99.90;;;;;;5091613;28;20000;-75
2022/05/30 11:52:02;;;;;;;;;;;23.30;99.90;;;;;;5095662;28;19909;-74
2022/05/30 11:54:36;;;;;;;;;;;22.80;99.90;;;;;;5095610;28;19990;-72
2022/05/30 11:57:20;;;;;;;;;;;22.80;99.90;;;;;;5095449;28;19931;-72
2022/05/30 12:00:04;;;;;;;;;;;22.80;99.90;;;;;;5083625;28;19950;-72
2022/05/30 12:02:45;;;;;;;;;;;22.50;99.90;;;;;;5095239;28;20013;-72
2022/05/30 12:05:29;;;;;;;;;;;22.50;99.90;;;;;;5095505;28;20274;-72
2022/05/30 12:07:55;;;;;;;;;;;22.40;99.90;;;;;;5095272;28;20274;-72
2022/05/30 12:10:29;;;;;;;;;;;22.20;99.90;;;;;;5095138;28;19944;-72
2022/05/30 12:13:04;;;;;;;;;;;22.20;99.90;;;;;;5090427;28;19908;-72
2022/05/30 12:15:29;;;;;;;;;;;22.40;99.90;;;;;;5095007;28;19995;-73
2022/05/30 12:23:49;;;;;;;;;;;22.40;99.90;;;;;;5095467;28;20332;-85
2022/05/30 12:26:14;;;;;;;;;;;22.50;99.90;;;;;;5076393;28;20252;-74
2022/05/30 12:28:40;;;;;;;;;;;22.40;99.90;;;;;;5081586;28;19912;-81
2022/05/30 12:31:07;;;;;;;;;;;22.40;99.90;;;;;;5095027;28;19938;-76
2022/05/30 12:33:32;;;;;;;;;;;22.70;99.90;;;;;;5094816;28;20367;-75
2022/05/30 12:36:10;;;;;;;;;;;22.40;99.90;;;;;;5094849;28;19951;-79
2022/05/30 12:38:53;;;;;;;;;;;22.00;99.90;;;;;;5094659;28;19919;-75
2022/05/30 12:41:28;;;;;;;;;;;21.70;99.90;;;;;;5094866;28;19908;-75
2022/05/30 12:43:53;;;;;;;;;;;21.60;99.90;;;;;;5094661;28;19908;-75
2022/05/30 12:46:20;;;;;;;;;;;21.50;99.90;;;;;;5094213;28;20377;-75
2022/05/30 12:48:58;;;;;;;;;;;21.50;99.90;;;;;;5094482;28;19915;-75
2022/05/30 12:51:36;;;;;;;;;;;21.50;99.90;;;;;;5083890;28;19912;-74
2022/05/30 12:54:01;;;;;;;;;;;21.70;99.90;;;;;;5088653;28;19912;-79
2022/05/30 12:56:39;;;;;;;;;;;21.90;99.90;;;;;;5094404;28;19914;-75
2022/05/30 12:59:11;;;;;;;;;;;21.80;99.90;;;;;;5081241;28;19908;-75
2022/05/30 13:01:42;;;;;;;;;;;21.20;99.90;;;;;;5094140;28;19912;-75
2022/05/30 13:04:21;;;;;;;;;;;21.10;99.90;;;;;;5082797;28;19912;-81
2022/05/30 13:06:52;;;;;;;;;;;21.00;99.90;;;;;;5067662;28;20383;-80
2022/05/30 13:09:20;;;;;;;;;;;21.00;99.90;;;;;;5079936;28;19908;-85
2022/05/30 13:11:58;;;;;;;;;;;21.30;99.90;;;;;;5083747;28;19916;-84
2022/05/30 13:14:44;;;;;;;;;;;21.60;99.90;;;;;;5094250;28;19982;-84
2022/05/30 13:17:10;;;;;;;;;;;21.40;99.90;;;;;;5080785;28;20260;-83
2022/05/30 13:19:41;;;;;;;;;;;21.40;99.90;;;;;;5082656;28;19920;-82
2022/05/30 13:22:06;;;;;;;;;;;21.30;99.90;;;;;;5074184;28;20377;-86
2022/05/30 13:24:33;;;;;;;;;;;21.40;99.90;;;;;;5076380;28;20011;-83
2022/05/30 13:27:00;;;;;;;;;;;21.40;99.90;;;;;;5069694;28;19934;-83
2022/05/30 13:29:27;;;;;;;;;;;21.50;99.90;;;;;;5087447;28;19916;-82
2022/05/30 13:31:52;;;;;;;;;;;21.70;99.90;;;;;;5069397;28;19917;-83
2022/05/30 13:34:23;;;;;;;;;;;21.70;99.90;;;;;;5065376;28;19913;-85
2022/05/30 13:36:50;;;;;;;;;;;21.90;99.90;;;;;;5074970;28;19908;-83
2022/05/30 13:39:16;;;;;;;;;;;22.00;99.90;;;;;;5089348;28;19962;-82
2022/05/30 13:41:41;;;;;;;;;;;22.30;99.90;;;;;;5093941;28;19955;-81
2022/05/30 13:44:11;;;;;;;;;;;22.50;99.90;;;;;;5093430;28;19998;-80
2022/05/30 13:46:43;;;;;;;;;;;22.90;99.90;;;;;;5080933;28;19916;-80
2022/05/30 13:49:08;;;;;;;;;;;22.90;99.90;;;;;;5093223;28;19908;-80
2022/05/30 13:51:36;;;;;;;;;;;23.00;99.90;;;;;;5083178;28;20412;-80
2022/05/30 13:54:02;;;;;;;;;;;23.20;99.90;;;;;;5092971;28;20464;-79
2022/05/30 13:56:33;;;;;;;;;;;23.20;99.90;;;;;;5076451;28;19908;-88
2022/05/30 13:59:00;;;;;;;;;;;23.30;99.90;;;;;;5064399;28;20026;-83
2022/05/30 14:01:27;;;;;;;;;;;22.80;99.90;;;;;;5075242;28;19912;-84
2022/05/30 14:04:00;;;;;;;;;;;23.10;99.90;;;;;;5105824;28;19908;-84
2022/05/30 14:06:31;;;;;;;;;;;23.70;99.90;;;;;;5075326;28;19998;-83
2022/05/30 14:08:58;;;;;;;;;;;24.20;99.90;;;;;;5088189;28;20011;-83
2022/05/30 14:11:24;;;;;;;;;;;24.40;99.90;;;;;;5083674;28;19908;-80
2022/05/30 14:13:55;;;;;;;;;;;24.70;99.90;;;;;;5091851;28;19934;-81
2022/05/30 14:16:38;;;;;;;;;;;24.90;99.90;;;;;;5093281;28;20309;-81
2022/05/30 14:19:05;;;;;;;;;;;24.60;99.90;;;;;;5093004;28;19908;-81
2022/05/30 14:21:32;;;;;;;;;;;23.90;99.90;;;;;;5077455;28;19966;-81
2022/05/30 14:24:13;;;;;;;;;;;23.50;99.90;;;;;;5097171;28;20346;-80
2022/05/30 14:26:38;;;;;;;;;;;23.90;99.90;;;;;;5084004;28;19915;-83
2022/05/30 14:29:18;;;;;;;;;;;23.90;99.90;;;;;;5079470;28;20015;-84
2022/05/30 14:31:43;;;;;;;;;;;24.10;99.90;;;;;;5074551;28;20264;-83
2022/05/30 14:34:17;;;;;;;;;;;24.10;99.90;;;;;;5056040;28;19920;-84
2022/05/30 14:36:44;;;;;;;;;;;24.30;99.90;;;;;;5083398;28;19958;-81
2022/05/30 14:39:23;;;;;;;;;;;24.40;99.90;;;;;;5075988;28;20360;-82
2022/05/30 14:42:03;;;;;;;;;;;24.40;99.90;;;;;;5088851;28;19966;-80
2022/05/30 14:44:33;;;;;;;;;;;24.50;99.90;;;;;;5093118;28;19909;-81
2022/05/30 14:46:59;;;;;;;;;;;24.60;99.90;;;;;;5069231;28;19924;-80
2022/05/30 14:49:28;;;;;;;;;;;24.70;99.90;;;;;;5082960;28;19995;-80
2022/05/30 14:52:02;;;;;;;;;;;24.50;99.90;;;;;;5096992;28;20286;-80
2022/05/30 14:54:42;;;;;;;;;;;24.10;99.90;;;;;;5089630;28;19908;-80
2022/05/30 14:57:14;;;;;;;;;;;23.80;99.90;;;;;;5065610;28;20291;-84
2022/05/30 14:59:41;;;;;;;;;;;23.40;99.90;;;;;;5072402;28;19916;-83
2022/05/30 15:02:07;;;;;;;;;;;23.30;99.90;;;;;;5096559;28;19946;-83
2022/05/30 15:04:33;;;;;;;;;;;23.30;99.90;;;;;;5096681;28;20352;-84
2022/05/30 15:07:11;;;;;;;;;;;23.30;99.90;;;;;;5096876;28;19914;-82
2022/05/30 15:09:42;;;;;;;;;;;24.20;99.90;;;;;;5096568;28;19998;-82
2022/05/30 15:12:08;;;;;;;;;;;25.90;99.90;;;;;;5092923;28;19953;-85
2022/05/30 15:14:33;;;;;;;;;;;27.60;99.90;;;;;;5096646;28;20325;-84
2022/05/30 15:16:59;;;;;;;;;;;29.00;99.90;;;;;;5096521;28;19915;-82
2022/05/30 15:19:24;;;;;;;;;;;30.50;99.90;;;;;;5096400;28;19915;-83
2022/05/30 15:21:51;;;;;;;;;;;32.30;99.90;;;;;;5082477;28;19935;-85
2022/05/30 15:24:18;;;;;;;;;;;33.10;99.90;;;;;;5096307;28;19914;-84
2022/05/30 15:26:44;;;;;;;;;;;33.50;99.90;;;;;;5082875;28;20271;-82
2022/05/30 15:29:10;;;;;;;;;;;34.40;99.90;;;;;;5096047;28;19912;-81
2022/05/30 15:31:36;;;;;;;;;;;34.20;99.90;;;;;;5082614;28;19916;-81